createdAt,value
2023-05-18T00:02:24.323Z,82.32
2023-05-18T00:04:50.867Z,82.15
2023-05-18T00:07:17.428Z,82.18
2023-05-18T00:09:43.858Z,82.14
2023-05-18T00:12:10.273Z,82.02
2023-05-18T00:14:36.918Z,81.91
2023-05-18T00:17:03.354Z,81.59
2023-05-18T00:19:29.831Z,81.41
2023-05-18T00:21:56.337Z,81.32
2023-05-18T00:24:22.767Z,81.25
2023-05-18T00:26:49.236Z,81.16
2023-05-18T00:29:15.886Z,81.23
2023-05-18T00:31:42.388Z,81.25
2023-05-18T00:34:08.862Z,81.25
2023-05-18T00:36:35.287Z,81.32
2023-05-18T00:39:01.717Z,81.22
2023-05-18T00:41:28.152Z,81.24
2023-05-18T00:43:54.848Z,81.33
2023-05-18T00:46:21.296Z,81.29
2023-05-18T00:48:47.781Z,81.19
2023-05-18T00:51:14.198Z,81.00
2023-05-18T00:53:42.072Z,81.00
2023-05-18T00:56:09.868Z,80.91
2023-05-18T00:58:36.295Z,80.65
2023-05-18T01:01:02.789Z,80.72
2023-05-18T01:03:29.327Z,80.80
2023-05-18T01:05:55.984Z,80.69
2023-05-18T01:08:22.410Z,80.80
2023-05-18T01:10:48.826Z,80.81
2023-05-18T01:13:15.463Z,80.79
2023-05-18T01:15:41.880Z,80.67
2023-05-18T01:18:08.375Z,80.74
2023-05-18T01:20:34.821Z,80.74
2023-05-18T01:23:01.481Z,80.61
2023-05-18T01:25:28.062Z,80.72
2023-05-18T01:27:54.601Z,80.61
2023-05-18T01:30:21.046Z,80.43
2023-05-18T01:32:47.524Z,80.81
2023-05-18T01:35:14.036Z,80.61
2023-05-18T01:37:40.468Z,80.57
2023-05-18T01:40:06.911Z,80.72
2023-05-18T01:42:33.330Z,80.73
2023-05-18T01:44:59.734Z,80.65
2023-05-18T01:47:26.196Z,80.54
2023-05-18T01:49:52.643Z,80.55
2023-05-18T01:52:19.049Z,80.66
2023-05-18T01:54:45.449Z,80.46
2023-05-18T01:57:11.935Z,80.52
2023-05-18T01:59:38.356Z,80.35
2023-05-18T02:02:04.813Z,80.41
2023-05-18T02:04:31.228Z,80.37
2023-05-18T02:06:57.624Z,80.39
2023-05-18T02:09:24.269Z,80.51
2023-05-18T02:11:50.669Z,80.40
2023-05-18T02:14:17.281Z,80.36
2023-05-18T02:16:43.823Z,80.52
2023-05-18T02:19:10.630Z,80.59
2023-05-18T02:21:37.024Z,80.39
2023-05-18T02:24:03.649Z,80.45
2023-05-18T02:26:30.053Z,80.39
2023-05-18T02:28:56.446Z,80.15
2023-05-18T02:31:22.919Z,80.29
2023-05-18T02:33:49.343Z,80.15
2023-05-18T02:36:15.731Z,80.25
2023-05-18T02:38:42.151Z,79.94
2023-05-18T02:41:08.564Z,79.86
2023-05-18T02:43:34.969Z,79.98
2023-05-18T02:46:01.353Z,80.05
2023-05-18T02:48:27.805Z,79.94
2023-05-18T02:50:54.230Z,80.00
2023-05-18T02:53:20.628Z,79.96
2023-05-18T02:55:47.047Z,79.95
2023-05-18T02:58:13.685Z,80.12
2023-05-18T03:00:40.130Z,80.02
2023-05-18T03:03:06.639Z,80.02
2023-05-18T03:05:33.077Z,79.96
2023-05-18T03:07:59.488Z,79.98
2023-05-18T03:10:25.889Z,80.04
2023-05-18T03:12:52.291Z,79.73
2023-05-18T03:15:18.713Z,79.72
2023-05-18T03:17:45.139Z,79.78
2023-05-18T03:20:11.566Z,79.71
2023-05-18T03:22:37.957Z,79.83
2023-05-18T03:25:04.353Z,79.75
2023-05-18T03:27:30.758Z,79.84
2023-05-18T03:29:57.162Z,79.80
2023-05-18T03:32:23.571Z,79.61
2023-05-18T03:34:49.985Z,79.51
2023-05-18T03:37:16.443Z,79.73
2023-05-18T03:39:42.845Z,79.60
2023-05-18T03:42:09.248Z,79.63
2023-05-18T03:44:35.682Z,79.81
2023-05-18T03:47:02.095Z,79.66
2023-05-18T03:49:28.500Z,79.76
2023-05-18T03:51:54.903Z,79.71
2023-05-18T03:54:21.438Z,79.69
2023-05-18T03:56:47.844Z,79.63
2023-05-18T03:59:14.260Z,79.60
2023-05-18T04:01:40.732Z,79.42
2023-05-18T04:04:07.262Z,79.35
2023-05-18T04:06:33.710Z,79.46
2023-05-18T04:09:00.099Z,79.47
2023-05-18T04:11:26.487Z,79.56
2023-05-18T04:13:52.917Z,79.60
2023-05-18T04:16:19.360Z,79.53
2023-05-18T04:18:46.712Z,79.61
2023-05-18T04:21:13.507Z,79.51
2023-05-18T04:23:39.994Z,79.44
2023-05-18T04:26:06.723Z,79.51
2023-05-18T04:28:33.128Z,79.51
2023-05-18T04:31:00.709Z,79.40
2023-05-18T04:33:27.095Z,79.51
2023-05-18T04:35:53.529Z,79.50
2023-05-18T04:38:19.938Z,79.44
2023-05-18T04:40:46.563Z,79.52
2023-05-18T04:43:12.979Z,79.52
2023-05-18T04:45:39.389Z,79.49
2023-05-18T04:48:05.884Z,79.84
2023-05-18T04:50:32.544Z,79.74
2023-05-18T04:52:58.936Z,79.80
2023-05-18T04:55:25.343Z,79.98
2023-05-18T04:57:51.735Z,80.04
2023-05-18T05:00:18.168Z,79.74
2023-05-18T05:02:44.888Z,79.88
2023-05-18T05:05:11.490Z,80.06
2023-05-18T05:07:38.726Z,79.98
2023-05-18T05:10:05.131Z,79.82
2023-05-18T05:12:31.530Z,79.88
2023-05-18T05:14:58.143Z,80.14
2023-05-18T05:17:24.606Z,80.17
2023-05-18T05:19:51.248Z,79.97
2023-05-18T05:22:17.651Z,80.05
2023-05-18T05:24:44.037Z,79.96
2023-05-18T05:27:10.414Z,80.16
2023-05-18T05:29:36.808Z,80.18
2023-05-18T05:32:03.361Z,80.04
2023-05-18T05:34:30.027Z,80.12
2023-05-18T05:36:56.436Z,80.43
2023-05-18T05:39:23.718Z,80.37
2023-05-18T05:41:50.131Z,80.15
2023-05-18T05:44:16.516Z,80.36
2023-05-18T05:46:42.939Z,80.45
2023-05-18T05:49:09.370Z,80.41
2023-05-18T05:51:35.778Z,80.49
2023-05-18T05:54:02.196Z,80.37
2023-05-18T05:56:28.630Z,80.77
2023-05-18T05:58:55.243Z,80.70
2023-05-18T06:01:21.658Z,80.77
2023-05-18T06:03:48.108Z,80.67
2023-05-18T06:06:14.565Z,80.55
2023-05-18T06:08:41.181Z,80.71
2023-05-18T06:11:10.668Z,80.72
2023-05-18T06:13:38.044Z,80.81
2023-05-18T06:16:04.771Z,80.83
2023-05-18T06:18:31.190Z,80.85
2023-05-18T06:20:57.579Z,81.01
2023-05-18T06:23:23.996Z,80.87
2023-05-18T06:25:50.406Z,80.98
2023-05-18T06:28:16.813Z,81.00
2023-05-18T06:30:43.213Z,81.64
2023-05-18T06:33:09.851Z,81.88
2023-05-18T06:35:36.368Z,82.16
2023-05-18T06:38:03.486Z,81.85
2023-05-18T06:40:29.891Z,81.86
2023-05-18T06:42:56.295Z,82.22
2023-05-18T06:45:22.696Z,82.01
2023-05-18T06:47:49.334Z,82.29
2023-05-18T06:50:15.752Z,82.43
2023-05-18T06:52:42.154Z,82.42
2023-05-18T06:55:08.843Z,82.27
2023-05-18T06:57:35.240Z,82.40
2023-05-18T07:00:04.372Z,82.23
2023-05-18T07:02:30.817Z,82.48
2023-05-18T07:04:57.239Z,82.64
2023-05-18T07:07:23.625Z,82.96
2023-05-18T07:09:50.239Z,82.94
2023-05-18T07:12:16.638Z,83.04
2023-05-18T07:14:43.268Z,82.78
2023-05-18T07:17:09.888Z,82.34
2023-05-18T07:19:36.300Z,82.21
2023-05-18T07:22:02.946Z,82.46
2023-05-18T07:24:29.361Z,82.58
2023-05-18T07:26:55.773Z,82.31
2023-05-18T07:29:22.196Z,82.18
2023-05-18T07:31:48.679Z,82.49
2023-05-18T07:34:15.159Z,82.63
2023-05-18T07:36:41.776Z,82.72
2023-05-18T07:39:08.208Z,82.63
2023-05-18T07:41:34.605Z,82.69
2023-05-18T07:44:01.018Z,82.75
2023-05-18T07:46:27.458Z,82.83
2023-05-18T07:48:54.092Z,82.85
2023-05-18T07:51:20.489Z,83.19
2023-05-18T07:53:47.106Z,83.16
2023-05-18T07:56:13.709Z,83.13
2023-05-18T07:58:40.127Z,82.94
2023-05-18T08:01:06.528Z,82.44
2023-05-18T08:03:33.091Z,83.01
2023-05-18T08:05:59.592Z,81.00
2023-05-18T08:08:25.983Z,82.36
2023-05-18T08:10:52.406Z,83.22
2023-05-18T08:13:18.832Z,81.90
2023-05-18T08:15:46.365Z,82.54
2023-05-18T08:18:15.569Z,82.79
2023-05-18T08:20:42.203Z,82.33
2023-05-18T08:23:08.616Z,82.11
2023-05-18T08:25:35.218Z,82.43
2023-05-18T08:28:01.620Z,82.15
2023-05-18T08:30:30.175Z,80.76
2023-05-18T08:32:56.702Z,81.66
2023-05-18T08:35:23.115Z,81.75
2023-05-18T08:37:49.524Z,82.66
2023-05-18T08:40:16.465Z,80.35
2023-05-18T08:42:49.828Z,80.68
2023-05-18T08:45:16.605Z,80.39
2023-05-18T08:47:43.230Z,81.43
2023-05-18T08:50:09.708Z,79.98
2023-05-18T08:52:36.590Z,82.51
2023-05-18T08:55:02.998Z,79.89
2023-05-18T08:57:29.416Z,81.06
2023-05-18T08:59:55.846Z,80.27
2023-05-18T09:02:22.331Z,79.93
2023-05-18T09:04:48.809Z,79.89
2023-05-18T09:07:15.447Z,80.02
2023-05-18T09:09:41.860Z,80.00
2023-05-18T09:12:08.303Z,80.27
2023-05-18T09:14:34.944Z,79.99
2023-05-18T09:17:01.352Z,80.25
2023-05-18T09:19:28.091Z,80.10
2023-05-18T09:21:57.475Z,79.99
2023-05-18T09:24:24.886Z,79.90
2023-05-18T09:26:51.733Z,80.10
2023-05-18T09:29:18.136Z,80.16
2023-05-18T09:31:44.616Z,80.02
2023-05-18T09:34:11.198Z,80.21
2023-05-18T09:36:37.646Z,80.16
2023-05-18T09:39:04.057Z,80.20
2023-05-18T09:41:30.468Z,80.11
2023-05-18T09:43:56.872Z,79.76
2023-05-18T09:46:23.289Z,79.90
2023-05-18T09:48:49.710Z,79.63
2023-05-18T09:51:16.131Z,79.78
2023-05-18T09:53:42.818Z,80.01
2023-05-18T09:56:09.222Z,80.09
2023-05-18T09:58:35.646Z,80.22
2023-05-18T10:01:02.101Z,80.04
2023-05-18T10:03:28.560Z,80.08
2023-05-18T10:05:54.963Z,80.17
2023-05-18T10:08:21.354Z,80.01
2023-05-18T10:10:47.749Z,79.95
2023-05-18T10:13:14.146Z,79.72
2023-05-18T10:15:40.548Z,79.69
2023-05-18T10:18:07.210Z,79.92
2023-05-18T10:20:33.655Z,79.80
2023-05-18T10:23:00.120Z,80.02
2023-05-18T10:25:26.570Z,80.31
2023-05-18T10:27:52.958Z,80.21
2023-05-18T10:30:19.449Z,80.18
2023-05-18T10:32:45.928Z,80.22
2023-05-18T10:35:12.613Z,80.30
2023-05-18T10:37:39.014Z,80.52
2023-05-18T10:40:05.420Z,80.64
2023-05-18T10:42:31.853Z,80.64
2023-05-18T10:44:58.271Z,80.66
2023-05-18T10:47:24.806Z,80.72
2023-05-18T10:49:51.351Z,80.75
2023-05-18T10:52:17.746Z,80.72
2023-05-18T10:54:44.153Z,80.69
2023-05-18T10:57:10.552Z,80.70
2023-05-18T10:59:36.980Z,80.64
2023-05-18T11:02:03.473Z,80.56
2023-05-18T11:04:30.059Z,80.56
2023-05-18T11:06:56.512Z,80.56
2023-05-18T11:09:22.918Z,80.59
2023-05-18T11:11:49.535Z,80.77
2023-05-18T11:14:15.949Z,80.88
2023-05-18T11:16:42.358Z,80.97
2023-05-18T11:19:08.862Z,81.01
2023-05-18T11:21:35.316Z,81.05
2023-05-18T11:24:01.975Z,81.06
2023-05-18T11:26:28.403Z,80.98
2023-05-18T11:28:54.803Z,80.82
2023-05-18T11:31:21.252Z,80.86
2023-05-18T11:33:47.711Z,80.93
2023-05-18T11:36:14.149Z,81.00
2023-05-18T11:38:40.537Z,81.09
2023-05-18T11:41:06.963Z,81.12
2023-05-18T11:43:33.394Z,81.16
2023-05-18T11:45:59.826Z,81.26
2023-05-18T11:48:26.325Z,81.36
2023-05-18T11:50:52.772Z,81.28
2023-05-18T11:53:19.184Z,81.26
2023-05-18T11:55:45.809Z,81.19
2023-05-18T11:58:12.202Z,81.27
2023-05-18T12:00:38.604Z,81.28
2023-05-18T12:03:05.142Z,81.28
2023-05-18T12:05:31.673Z,81.28
2023-05-18T12:07:58.101Z,81.38
2023-05-18T12:10:24.497Z,81.40
2023-05-18T12:12:50.904Z,81.47
2023-05-18T12:15:17.630Z,81.50
2023-05-18T12:17:44.112Z,81.55
2023-05-18T12:20:10.570Z,81.56
2023-05-18T12:22:37.212Z,81.56
2023-05-18T12:25:03.642Z,81.55
2023-05-18T12:27:30.076Z,81.57
2023-05-18T12:29:56.492Z,81.57
2023-05-18T12:32:22.951Z,81.57
2023-05-18T12:34:49.361Z,81.54
2023-05-18T12:37:15.774Z,81.56
2023-05-18T12:39:42.399Z,81.52
2023-05-18T12:42:08.828Z,81.43
2023-05-18T12:44:35.231Z,81.35
2023-05-18T12:47:01.638Z,81.36
2023-05-18T12:49:28.041Z,81.30
2023-05-18T12:51:54.470Z,81.49
2023-05-18T12:54:20.879Z,81.44
2023-05-18T12:56:47.513Z,81.53
2023-05-18T12:59:13.913Z,81.58
2023-05-18T13:01:40.372Z,81.57
2023-05-18T13:04:06.954Z,81.63
2023-05-18T13:06:33.468Z,81.72
2023-05-18T13:08:59.874Z,81.74
2023-05-18T13:11:26.288Z,81.75
2023-05-18T13:13:52.689Z,81.75
2023-05-18T13:16:19.164Z,81.68
2023-05-18T13:18:45.592Z,81.67
2023-05-18T13:21:12.008Z,81.66
2023-05-18T13:23:38.406Z,81.64
2023-05-18T13:26:04.803Z,81.70
2023-05-18T13:28:31.208Z,81.74
2023-05-18T13:30:57.608Z,81.79
2023-05-18T13:33:24.009Z,81.80
2023-05-18T13:35:50.676Z,81.83
2023-05-18T13:38:17.105Z,81.80
2023-05-18T13:40:43.545Z,81.84
2023-05-18T13:43:11.937Z,81.89
2023-05-18T13:45:40.102Z,81.93
2023-05-18T13:48:08.911Z,82.01
2023-05-18T13:50:36.231Z,82.00
2023-05-18T13:53:02.637Z,82.02
2023-05-18T13:55:29.156Z,82.00
2023-05-18T13:57:56.046Z,82.03
2023-05-18T14:00:22.476Z,82.00
2023-05-18T14:02:48.991Z,82.00
2023-05-18T14:05:15.536Z,81.97
2023-05-18T14:07:41.931Z,82.00
2023-05-18T14:10:08.370Z,81.90
2023-05-18T14:12:34.798Z,81.96
2023-05-18T14:15:01.431Z,81.95
2023-05-18T14:17:27.874Z,81.90
2023-05-18T14:19:54.291Z,81.85
2023-05-18T14:22:20.706Z,81.83
2023-05-18T14:24:47.110Z,81.78
2023-05-18T14:27:13.519Z,81.81
2023-05-18T14:29:39.920Z,81.82
2023-05-18T14:32:06.551Z,81.90
2023-05-18T14:34:32.947Z,82.00
2023-05-18T14:36:59.345Z,81.92
2023-05-18T14:39:25.750Z,81.90
2023-05-18T14:41:52.171Z,81.91
2023-05-18T14:44:18.610Z,81.93
2023-05-18T14:46:45.033Z,82.01
2023-05-18T14:49:11.708Z,82.02
2023-05-18T14:51:38.122Z,82.04
2023-05-18T14:54:04.518Z,82.11
2023-05-18T14:56:30.991Z,82.01
2023-05-18T14:58:57.397Z,81.68
2023-05-18T15:01:23.834Z,81.76
2023-05-18T15:03:50.413Z,81.70
2023-05-18T15:06:17.216Z,81.70
2023-05-18T15:08:43.621Z,81.87
2023-05-18T15:11:10.036Z,81.92
2023-05-18T15:13:36.432Z,81.89
2023-05-18T15:16:02.865Z,81.87
2023-05-18T15:18:29.281Z,81.88
2023-05-18T15:20:55.690Z,81.83
2023-05-18T15:23:22.309Z,81.88
2023-05-18T15:25:48.716Z,81.88
2023-05-18T15:28:15.102Z,81.91
2023-05-18T15:30:41.489Z,82.01
2023-05-18T15:33:07.991Z,81.99
2023-05-18T15:35:34.411Z,82.05
2023-05-18T15:38:00.821Z,82.03
2023-05-18T15:40:27.462Z,82.08
2023-05-18T15:42:53.866Z,82.09
2023-05-18T15:45:20.331Z,82.17
2023-05-18T15:47:46.777Z,82.17
2023-05-18T15:50:13.238Z,81.78
2023-05-18T15:52:39.631Z,81.64
2023-05-18T15:55:06.036Z,81.68
2023-05-18T15:57:32.669Z,81.76
2023-05-18T15:59:59.077Z,81.95
2023-05-18T16:02:26.020Z,82.03
2023-05-18T16:04:52.578Z,81.98
2023-05-18T16:07:18.974Z,81.63
2023-05-18T16:09:45.406Z,81.50
2023-05-18T16:12:11.842Z,81.61
2023-05-18T16:14:38.260Z,81.59
2023-05-18T16:17:04.783Z,81.59
2023-05-18T16:19:31.471Z,81.68
2023-05-18T16:21:57.853Z,81.69
2023-05-18T16:24:24.249Z,81.86
2023-05-18T16:26:50.655Z,81.83
2023-05-18T16:29:17.054Z,81.94
2023-05-18T16:31:43.502Z,82.08
2023-05-18T16:34:09.924Z,82.09
2023-05-18T16:36:36.587Z,81.97
2023-05-18T16:39:03.044Z,81.91
2023-05-18T16:41:29.481Z,81.87
2023-05-18T16:43:55.907Z,81.92
2023-05-18T16:46:22.373Z,82.02
2023-05-18T16:48:48.840Z,82.11
2023-05-18T16:51:15.262Z,82.14
2023-05-18T16:53:41.665Z,82.24
2023-05-18T16:56:08.071Z,82.21
2023-05-18T16:58:34.687Z,82.18
2023-05-18T17:01:01.611Z,82.29
2023-05-18T17:03:28.168Z,82.44
2023-05-18T17:05:54.582Z,82.49
2023-05-18T17:08:20.979Z,82.49
2023-05-18T17:10:47.396Z,82.23
2023-05-18T17:13:13.795Z,82.29
2023-05-18T17:15:40.440Z,82.31
2023-05-18T17:18:06.923Z,82.32
2023-05-18T17:20:33.610Z,82.33
2023-05-18T17:23:01.975Z,82.42
2023-05-18T17:25:28.654Z,82.55
2023-05-18T17:27:55.081Z,82.60
2023-05-18T17:30:21.477Z,82.61
2023-05-18T17:32:48.165Z,82.63
2023-05-18T17:35:14.676Z,82.69
2023-05-18T17:37:41.159Z,82.73
2023-05-18T17:40:07.566Z,82.83
2023-05-18T17:42:33.982Z,82.80
2023-05-18T17:45:00.588Z,82.85
2023-05-18T17:47:27.028Z,82.84
2023-05-18T17:49:53.459Z,82.92
2023-05-18T17:52:19.866Z,82.95
2023-05-18T17:54:46.267Z,82.97
2023-05-18T17:57:12.684Z,83.01
2023-05-18T17:59:39.082Z,83.05
2023-05-18T18:02:05.501Z,83.03
2023-05-18T18:04:31.903Z,83.07
2023-05-18T18:06:58.311Z,83.06
2023-05-18T18:09:24.730Z,83.11
2023-05-18T18:11:51.163Z,83.10
2023-05-18T18:14:17.589Z,83.11
2023-05-18T18:16:44.265Z,83.11
2023-05-18T18:19:10.813Z,83.11
2023-05-18T18:21:37.234Z,83.12
2023-05-18T18:24:03.663Z,83.14
2023-05-18T18:26:30.069Z,83.12
2023-05-18T18:28:56.477Z,83.20
2023-05-18T18:31:22.945Z,83.21
2023-05-18T18:33:49.480Z,83.23
2023-05-18T18:36:15.899Z,83.21
2023-05-18T18:38:42.320Z,83.22
2023-05-18T18:41:08.727Z,83.22
2023-05-18T18:43:35.233Z,83.31
2023-05-18T18:46:01.657Z,83.38
2023-05-18T18:48:28.077Z,83.36
2023-05-18T18:50:54.484Z,83.37
2023-05-18T18:53:20.885Z,83.38
2023-05-18T18:55:47.500Z,83.42
2023-05-18T18:58:13.890Z,83.42
2023-05-18T19:00:40.310Z,83.43
2023-05-18T19:03:06.793Z,83.48
2023-05-18T19:05:33.450Z,83.54
2023-05-18T19:08:00.220Z,83.49
2023-05-18T19:10:26.614Z,83.50
2023-05-18T19:12:53.024Z,83.53
2023-05-18T19:15:19.438Z,83.56
2023-05-18T19:17:45.902Z,83.53
2023-05-18T19:20:12.351Z,83.59
2023-05-18T19:22:38.748Z,83.67
2023-05-18T19:25:05.166Z,83.55
2023-05-18T19:27:31.552Z,83.58
2023-05-18T19:29:58.704Z,83.59
2023-05-18T19:32:26.631Z,83.58
2023-05-18T19:34:53.020Z,83.55
2023-05-18T19:37:19.654Z,83.51
2023-05-18T19:39:46.057Z,83.55
2023-05-18T19:42:12.459Z,83.54
2023-05-18T19:44:38.881Z,83.52
2023-05-18T19:47:05.285Z,83.53
2023-05-18T19:49:31.681Z,83.62
2023-05-18T19:51:58.071Z,83.54
2023-05-18T19:54:24.466Z,83.57
2023-05-18T19:56:50.878Z,83.59
2023-05-18T19:59:17.280Z,83.53
2023-05-18T20:01:43.824Z,83.55
2023-05-18T20:04:10.358Z,83.59
2023-05-18T20:06:36.827Z,83.58
2023-05-18T20:09:03.222Z,83.52
2023-05-18T20:11:29.619Z,83.60
2023-05-18T20:13:56.087Z,83.45
2023-05-18T20:16:22.529Z,83.46
2023-05-18T20:18:49.163Z,83.47
2023-05-18T20:21:15.598Z,83.40
2023-05-18T20:23:42.225Z,83.40
2023-05-18T20:26:08.647Z,83.39
2023-05-18T20:28:35.059Z,83.43
2023-05-18T20:31:01.476Z,83.34
2023-05-18T20:33:28.118Z,83.38
2023-05-18T20:35:54.502Z,83.45
2023-05-18T20:38:20.907Z,83.43
2023-05-18T20:40:47.323Z,83.41
2023-05-18T20:43:13.725Z,83.41
2023-05-18T20:45:40.124Z,83.43
2023-05-18T20:48:06.571Z,83.34
2023-05-18T20:50:33.462Z,83.33
2023-05-18T20:53:00.271Z,83.33
2023-05-18T20:55:26.723Z,83.36
2023-05-18T20:57:53.119Z,83.36
2023-05-18T21:00:19.508Z,83.38
2023-05-18T21:02:45.965Z,83.38
2023-05-18T21:05:12.415Z,83.34
2023-05-18T21:07:39.034Z,83.40
2023-05-18T21:10:06.192Z,83.37
2023-05-18T21:12:32.596Z,83.33
2023-05-18T21:14:59.000Z,83.38
2023-05-18T21:17:25.421Z,83.38
2023-05-18T21:19:51.863Z,83.39
2023-05-18T21:22:18.276Z,83.34
2023-05-18T21:24:44.674Z,83.34
2023-05-18T21:27:11.089Z,83.37
2023-05-18T21:29:37.495Z,83.42
2023-05-18T21:32:04.004Z,83.43
2023-05-18T21:34:30.456Z,83.32
2023-05-18T21:36:56.874Z,83.42
2023-05-18T21:39:23.279Z,83.32
2023-05-18T21:41:49.917Z,83.30
2023-05-18T21:44:16.550Z,83.29
2023-05-18T21:46:42.939Z,83.33
2023-05-18T21:49:09.342Z,83.26
2023-05-18T21:51:35.960Z,83.32
2023-05-18T21:54:02.374Z,83.28
2023-05-18T21:56:28.795Z,83.30
2023-05-18T21:58:55.184Z,83.28
2023-05-18T22:01:21.830Z,83.30
2023-05-18T22:03:48.311Z,83.35
2023-05-18T22:06:14.958Z,83.32
2023-05-18T22:08:41.371Z,83.37
2023-05-18T22:11:07.984Z,83.36
2023-05-18T22:13:34.388Z,83.32
2023-05-18T22:16:01.003Z,83.36
2023-05-18T22:18:27.402Z,83.35
2023-05-18T22:20:53.795Z,83.30
2023-05-18T22:23:20.187Z,83.33
2023-05-18T22:25:46.586Z,83.39
2023-05-18T22:28:12.987Z,83.38
2023-05-18T22:30:39.392Z,83.36
2023-05-18T22:33:06.098Z,83.35
2023-05-18T22:35:32.601Z,83.34
2023-05-18T22:37:58.992Z,83.35
2023-05-18T22:40:25.395Z,83.38
2023-05-18T22:42:51.813Z,83.43
2023-05-18T22:45:18.425Z,83.44
2023-05-18T22:47:45.332Z,83.33
2023-05-18T22:50:11.793Z,83.39
2023-05-18T22:52:38.243Z,83.38
2023-05-18T22:55:04.675Z,83.39
2023-05-18T22:57:31.103Z,83.37
2023-05-18T22:59:57.490Z,83.43
2023-05-18T23:02:23.896Z,83.46
2023-05-18T23:04:50.342Z,83.43
2023-05-18T23:07:16.811Z,83.42
2023-05-18T23:09:43.249Z,83.38
2023-05-18T23:12:09.659Z,83.41
2023-05-18T23:14:36.289Z,83.37
2023-05-18T23:17:02.701Z,83.38
2023-05-18T23:19:29.119Z,83.40
2023-05-18T23:21:55.553Z,83.42
2023-05-18T23:24:21.985Z,83.38
2023-05-18T23:26:48.388Z,83.38
2023-05-18T23:29:15.003Z,83.44
2023-05-18T23:31:41.383Z,83.46
2023-05-18T23:34:07.988Z,83.41
2023-05-18T23:36:34.394Z,83.39
2023-05-18T23:39:00.805Z,83.43
2023-05-18T23:41:27.211Z,83.42
2023-05-18T23:43:53.622Z,83.39
2023-05-18T23:46:20.106Z,83.45
2023-05-18T23:48:46.748Z,83.41
2023-05-18T23:51:13.155Z,83.43
2023-05-18T23:53:39.772Z,83.43
2023-05-18T23:56:06.403Z,83.44
2023-05-18T23:58:32.790Z,83.43
